KDNL/DNL METAR and TAF weather

Enter ICAO airport designator
Station Type Date Time Source
KDNL METAR 2019/12/13 00:53 UTC NOAA

KDNL 130053Z AUTO 06007KT 10SM OVC025 09/M01 A3040 RMK AO2 RAE21 SLP293 P0000 T00891011 TSNO


Station Type Date Time Source
KDNL Decoded METAR 2019/12/13 00:53 UTC NOAA

AUGUSTA DANIEL FIELD, GA, United States (KDNL) 33-28N 82-02W 130M
Dec 12, 2019 - 07:53 PM EST / 2019.12.13 0053 UTC
Wind: from the ENE (060 degrees) at 8 MPH (7 KT):0
Visibility: 10 mile(s):0
Sky conditions: overcast
Precipitation last hour: A trace
Temperature: 48.0 F (8.9 C)
Dew Point: 30.0 F (-1.1 C)
Relative Humidity: 49%
Pressure (altimeter): 30.4 in. Hg (1029 hPa)
ob: KDNL 130053Z AUTO 06007KT 10SM OVC025 09/M01 A3040 RMK AO2 RAE21 SLP293 P0000 T00891011 TSNO
cycle: 1

Station Type Date Time Source
KDNL TAF 2019/12/12 23:39 UTC NOAA

TAF
AMD KDNL 122236Z 1223/1318 05010KT P6SM -RA OVC025
FM130400 04010KT 5SM -SHRA OVC015
FM131000 04010KT 2SM SHRA BR OVC006

Example: see airport list